Time;durP1;ratioP1;P1;durP2;ratioP2;P2;SDS_P1;SDS_P2;PMS_P1;PMS_P2;Temp;Humidity;BMP_temperature;BMP_pressure;BME280_temperature;BME280_humidity;BME280_pressure;Samples;Min_cycle;Max_cycle;Signal;HPM_P1;HPM_P2
2022/08/26 00:01:42;;;;;;;19.58;9.20;;;;;;;21.90;67.64;100582.69;4978955;28;20546;-79
2022/08/26 00:04:09;;;;;;;15.88;12.50;;;;;;;21.84;69.74;100592.41;4977254;28;20460;-78
2022/08/26 00:06:36;;;;;;;19.38;13.82;;;;;;;21.82;71.02;100600.63;4975895;28;20142;-78
2022/08/26 00:09:05;;;;;;;20.65;15.50;;;;;;;21.77;72.32;100605.00;4974991;28;20465;-79
2022/08/26 00:11:33;;;;;;;23.10;18.08;;;;;;;21.78;73.03;100609.31;4976528;28;20108;-78
2022/08/26 00:14:00;;;;;;;25.52;18.92;;;;;;;21.72;73.94;100621.72;4975573;28;20078;-78
2022/08/26 00:16:30;;;;;;;21.30;18.20;;;;;;;21.75;74.60;100621.22;4974900;28;20113;-78
2022/08/26 00:18:56;;;;;;;24.35;21.45;;;;;;;21.75;75.25;100615.09;4976494;28;20420;-78
2022/08/26 00:21:23;;;;;;;26.48;23.80;;;;;;;21.81;76.50;100627.50;4973933;28;20133;-78
2022/08/26 00:23:50;;;;;;;29.23;25.45;;;;;;;21.78;77.54;100630.59;4976127;28;20070;-78
2022/08/26 00:26:18;;;;;;;32.83;27.58;;;;;;;21.83;77.66;100622.75;4976651;28;20137;-78
2022/08/26 00:28:45;;;;;;;33.60;29.35;;;;;;;21.83;78.35;100625.41;4976047;28;20071;-78
2022/08/26 00:31:12;;;;;;;34.63;31.02;;;;;;;21.79;79.18;100626.91;4978912;28;20053;-79
2022/08/26 00:33:39;;;;;;;42.85;37.95;;;;;;;21.83;79.92;100628.06;4979329;28;20137;-79
2022/08/26 00:36:06;;;;;;;54.85;48.90;;;;;;;21.82;82.50;100642.44;4976932;28;20082;-79
2022/08/26 00:38:32;;;;;;;67.78;59.97;;;;;;;21.82;84.61;100631.78;4974617;28;20086;-78
2022/08/26 00:40:59;;;;;;;70.22;62.60;;;;;;;21.85;84.95;100620.66;4980350;28;20050;-78
2022/08/26 00:43:29;;;;;;;67.28;60.03;;;;;;;21.80;85.17;100633.84;4978022;28;20085;-79
2022/08/26 00:46:00;;;;;;;67.20;59.83;;;;;;;21.83;85.23;100638.72;4979045;28;20111;-78
2022/08/26 00:48:30;;;;;;;66.50;59.38;;;;;;;21.76;85.38;100640.69;4977315;28;20572;-79
2022/08/26 00:51:02;;;;;;;68.45;61.40;;;;;;;21.76;85.98;100633.50;4976351;28;20611;-79
2022/08/26 00:53:31;;;;;;;73.53;63.30;;;;;;;21.71;86.65;100633.41;4981129;28;20081;-79
2022/08/26 00:56:02;;;;;;;75.07;67.15;;;;;;;21.69;87.42;100642.66;4982692;28;20057;-77
2022/08/26 00:58:35;;;;;;;77.40;69.25;;;;;;;21.63;87.77;100632.91;4977356;28;20050;-78
2022/08/26 01:01:01;;;;;;;77.10;68.63;;;;;;;21.55;88.36;100627.91;4980187;28;20042;-78
2022/08/26 01:03:32;;;;;;;76.90;68.93;;;;;;;21.49;88.87;100633.13;4984598;28;20078;-79
2022/08/26 01:06:01;;;;;;;78.13;70.00;;;;;;;21.46;89.01;100628.25;4981084;28;20074;-79
2022/08/26 01:08:28;;;;;;;77.00;68.72;;;;;;;21.42;89.38;100632.41;4979359;28;20090;-79
2022/08/26 01:10:58;;;;;;;80.30;71.57;;;;;;;21.39;89.67;100619.53;4981897;28;20082;-79
2022/08/26 01:13:25;;;;;;;80.13;71.18;;;;;;;21.36;90.05;100627.16;4972889;28;20181;-79
2022/08/26 01:15:56;;;;;;;78.55;70.22;;;;;;;21.36;90.23;100627.97;4971209;28;20082;-78
2022/08/26 01:18:24;;;;;;;84.97;74.97;;;;;;;21.31;90.51;100630.50;4970612;28;20097;-77
2022/08/26 01:20:58;;;;;;;83.15;74.22;;;;;;;21.20;91.29;100629.41;4977386;28;20551;-79
2022/08/26 01:23:30;;;;;;;83.13;74.15;;;;;;;21.18;91.83;100620.03;4982238;28;20054;-79
2022/08/26 01:26:04;;;;;;;82.65;73.78;;;;;;;21.16;91.80;100622.09;4985266;28;20070;-80
2022/08/26 01:28:34;;;;;;;84.60;75.32;;;;;;;21.11;92.15;100619.31;4981290;28;20082;-79
2022/08/26 01:31:04;;;;;;;84.25;75.05;;;;;;;21.09;92.52;100621.38;4980839;28;20078;-79
2022/08/26 01:33:37;;;;;;;83.18;74.20;;;;;;;21.05;92.71;100618.34;4970667;28;20416;-78
2022/08/26 01:36:04;;;;;;;87.47;76.72;;;;;;;20.96;93.30;100627.69;4977573;28;20130;-78
2022/08/26 01:38:33;;;;;;;89.18;73.85;;;;;;;20.97;93.64;100623.16;4977513;28;20051;-78
2022/08/26 01:41:01;;;;;;;86.07;76.50;;;;;;;20.94;93.78;100628.94;4979484;28;20055;-78
2022/08/26 01:43:30;;;;;;;86.75;76.63;;;;;;;20.93;93.81;100630.78;4977857;28;20058;-77
2022/08/26 01:45:58;;;;;;;84.15;74.95;;;;;;;20.91;93.99;100630.19;4973198;28;20173;-79
2022/08/26 01:48:28;;;;;;;87.90;76.03;;;;;;;20.84;94.34;100627.59;4974420;28;20051;-78
2022/08/26 01:50:56;;;;;;;82.07;72.18;;;;;;;20.81;94.69;100630.72;4974823;28;20083;-78
2022/08/26 01:53:24;;;;;;;82.80;73.07;;;;;;;20.76;94.76;100630.59;4983501;28;20107;-79
2022/08/26 01:55:56;;;;;;;81.78;72.97;;;;;;;20.76;95.06;100633.25;4987058;28;20078;-78
2022/08/26 01:58:26;;;;;;;81.65;72.38;;;;;;;20.69;95.51;100637.03;4985757;28;20082;-78
2022/08/26 02:00:54;;;;;;;80.47;71.68;;;;;;;20.65;95.82;100638.50;4985097;28;20086;-79
2022/08/26 02:03:21;;;;;;;83.18;73.05;;;;;;;20.58;96.34;100638.56;4987329;28;20110;-78
2022/08/26 02:05:52;;;;;;;78.20;69.60;;;;;;;20.60;96.26;100644.47;4988174;28;20561;-79
2022/08/26 02:08:22;;;;;;;78.70;70.32;;;;;;;20.59;96.35;100648.16;4987591;28;20547;-79
2022/08/26 02:10:49;;;;;;;76.32;67.20;;;;;;;20.58;96.51;100651.84;4981997;28;20062;-78
2022/08/26 02:13:17;;;;;;;80.20;66.60;;;;;;;20.57;96.58;100647.56;4980762;28;20114;-76
2022/08/26 02:15:45;;;;;;;79.10;65.97;;;;;;;20.53;96.87;100654.38;4978704;28;20086;-77
2022/08/26 02:18:12;;;;;;;75.03;64.80;;;;;;;20.46;97.11;100649.13;4986108;28;20050;-79
2022/08/26 02:20:39;;;;;;;77.75;66.00;;;;;;;20.39;97.61;100658.19;4988240;28;20146;-80
2022/08/26 02:23:07;;;;;;;73.20;65.32;;;;;;;20.35;97.80;100663.09;4989070;28;20050;-79
2022/08/26 02:25:43;;;;;;;73.50;64.28;;;;;;;20.39;97.84;100676.78;4988119;28;20058;-79
2022/08/26 02:28:10;;;;;;;74.45;64.07;;;;;;;20.33;98.22;100680.28;4986771;28;20104;-78
2022/08/26 02:30:39;;;;;;;77.55;65.65;;;;;;;20.26;98.41;100679.56;4987329;28;20062;-79
2022/08/26 02:33:06;;;;;;;78.80;66.18;;;;;;;20.21;98.97;100683.69;4988333;28;20373;-79
2022/08/26 02:35:34;;;;;;;74.63;64.90;;;;;;;20.16;99.17;100678.19;4987029;28;20047;-79
2022/08/26 02:38:01;;;;;;;74.57;65.53;;;;;;;20.20;98.98;100681.25;4986609;28;20057;-80
2022/08/26 02:40:30;;;;;;;74.47;63.50;;;;;;;20.15;99.24;100679.22;4974543;28;20070;-79
2022/08/26 02:43:00;;;;;;;73.88;65.18;;;;;;;20.15;99.40;100683.72;4968068;28;20058;-79
2022/08/26 02:45:28;;;;;;;76.13;62.45;;;;;;;20.13;99.47;100685.78;4979444;28;20103;-79
2022/08/26 02:47:57;;;;;;;74.90;62.78;;;;;;;20.08;99.91;100689.09;4986443;28;20051;-80
2022/08/26 02:50:25;;;;;;;70.93;61.03;;;;;;;20.12;99.86;100690.28;4977631;28;20043;-79
2022/08/26 02:52:52;;;;;;;74.63;61.70;;;;;;;20.11;100.00;100688.66;4986491;28;20054;-79
2022/08/26 02:55:19;;;;;;;74.03;60.83;;;;;;;20.03;100.00;100683.63;4986553;28;20081;-79
2022/08/26 02:57:46;;;;;;;72.50;61.78;;;;;;;20.15;100.00;100684.53;4987146;28;20130;-79
2022/08/26 03:00:14;;;;;;;73.55;61.65;;;;;;;20.16;100.00;100686.16;4986538;28;20047;-79
2022/08/26 03:02:41;;;;;;;68.70;59.53;;;;;;;20.20;100.00;100683.91;4987436;28;20050;-79
2022/08/26 03:05:12;;;;;;;73.70;60.88;;;;;;;20.23;100.00;100685.31;4987780;28;20066;-80
2022/08/26 03:07:38;;;;;;;67.05;59.78;;;;;;;20.29;100.00;100677.28;4987035;28;20055;-80
2022/08/26 03:10:07;;;;;;;73.05;58.33;;;;;;;20.38;99.90;100675.16;4986809;28;20074;-79
2022/08/26 03:12:34;;;;;;;65.85;58.00;;;;;;;20.45;99.52;100675.91;4987783;28;20078;-77
2022/08/26 03:15:00;;;;;;;70.25;57.50;;;;;;;20.55;99.10;100678.88;4987747;28;20078;-78
2022/08/26 03:17:27;;;;;;;70.30;57.17;;;;;;;20.62;98.63;100674.31;4986199;28;20209;-79
2022/08/26 03:19:54;;;;;;;69.70;56.63;;;;;;;20.67;98.33;100676.31;4986687;28;20078;-78
2022/08/26 03:22:22;;;;;;;66.40;54.47;;;;;;;20.75;97.95;100684.00;4978474;28;20125;-78
2022/08/26 03:24:49;;;;;;;62.45;52.90;;;;;;;20.81;97.60;100683.91;4981523;28;20046;-78
2022/08/26 03:27:16;;;;;;;64.93;53.40;;;;;;;20.81;97.38;100678.59;4980876;28;20086;-77
2022/08/26 03:32:28;;;;;;;63.67;51.88;;;;;;;20.85;96.97;100685.09;4980865;28;20078;-78
2022/08/26 03:34:56;;;;;;;61.85;51.10;;;;;;;20.84;96.75;100683.47;4975814;28;20054;-78
2022/08/26 03:37:24;;;;;;;61.30;49.33;;;;;;;20.87;96.62;100684.88;4980045;28;20059;-78
2022/08/26 03:39:51;;;;;;;59.22;47.92;;;;;;;20.86;96.66;100684.06;4980900;28;20498;-78
2022/08/26 03:42:18;;;;;;;59.67;49.78;;;;;;;20.91;96.72;100682.56;4981698;28;20057;-78
2022/08/26 03:44:45;;;;;;;61.08;48.40;;;;;;;20.93;96.21;100691.16;4983694;28;20105;-78
2022/08/26 03:47:12;;;;;;;58.63;47.58;;;;;;;20.94;95.98;100687.44;4984270;28;20055;-79
2022/08/26 03:49:38;;;;;;;53.97;46.58;;;;;;;20.95;95.93;100691.75;4985252;28;20098;-79
2022/08/26 03:52:06;;;;;;;54.80;47.50;;;;;;;20.91;95.97;100686.06;4991850;28;20051;-79
2022/08/26 03:54:34;;;;;;;55.45;46.55;;;;;;;20.90;96.30;100688.94;4991380;28;20046;-79
2022/08/26 03:57:01;;;;;;;49.95;42.25;;;;;;;20.95;95.98;100681.09;4991080;28;20061;-78
2022/08/26 03:59:28;;;;;;;53.15;44.38;;;;;;;20.94;96.12;100690.94;4987763;28;20177;-78
2022/08/26 04:01:54;;;;;;;50.63;42.88;;;;;;;20.86;95.95;100685.91;4985047;28;20080;-79
2022/08/26 04:04:21;;;;;;;52.95;42.10;;;;;;;20.91;96.21;100687.91;4985400;28;20143;-79
2022/08/26 04:06:48;;;;;;;52.17;41.35;;;;;;;20.92;96.21;100686.88;4978700;28;20058;-79
2022/08/26 04:09:19;;;;;;;50.45;41.83;;;;;;;20.89;96.25;100690.78;4976615;28;20062;-78
2022/08/26 04:11:48;;;;;;;45.03;39.97;;;;;;;20.92;96.00;100693.00;4978954;28;20050;-79
2022/08/26 04:14:16;;;;;;;44.88;39.75;;;;;;;20.90;96.34;100688.94;4977931;28;20090;-78
2022/08/26 04:16:43;;;;;;;49.78;38.95;;;;;;;20.82;96.53;100690.84;4975671;28;20108;-77
2022/08/26 04:19:11;;;;;;;53.13;39.45;;;;;;;20.82;96.55;100693.50;4975026;28;20119;-78
2022/08/26 04:21:39;;;;;;;48.78;39.38;;;;;;;20.85;96.31;100695.72;4978575;28;20583;-78
2022/08/26 04:24:07;;;;;;;48.67;38.20;;;;;;;20.82;96.16;100695.34;4977251;28;20086;-79
2022/08/26 04:26:36;;;;;;;43.53;36.53;;;;;;;20.91;96.05;100694.03;4983507;28;20051;-79
2022/08/26 04:29:06;;;;;;;47.00;37.47;;;;;;;20.87;95.97;100690.19;4984944;28;20274;-80
2022/08/26 04:31:34;;;;;;;40.58;36.15;;;;;;;20.84;96.06;100694.09;4985644;28;20047;-79
2022/08/26 04:34:00;;;;;;;45.75;36.08;;;;;;;20.88;96.08;100694.47;4979997;28;20051;-79
2022/08/26 04:36:27;;;;;;;39.20;34.10;;;;;;;20.83;96.03;100692.47;4980491;28;20090;-79
2022/08/26 04:38:54;;;;;;;39.92;34.75;;;;;;;20.87;95.94;100704.28;4978952;28;20051;-79
2022/08/26 04:41:21;;;;;;;43.35;34.20;;;;;;;20.86;95.84;100707.19;4978250;28;20069;-78
2022/08/26 04:43:49;;;;;;;40.25;33.20;;;;;;;20.85;95.84;100701.03;4980003;28;20051;-79
2022/08/26 04:46:20;;;;;;;42.38;32.78;;;;;;;20.88;95.71;100710.44;4977353;28;20364;-78
2022/08/26 04:48:47;;;;;;;36.87;31.43;;;;;;;20.85;95.62;100705.56;4977068;28;20078;-79
2022/08/26 04:51:14;;;;;;;40.63;31.67;;;;;;;20.82;95.72;100708.66;4976954;28;20138;-79
2022/08/26 04:53:41;;;;;;;39.10;32.47;;;;;;;20.82;95.84;100712.13;4975527;28;20058;-80
2022/08/26 04:56:08;;;;;;;41.40;31.05;;;;;;;20.80;96.04;100714.19;4978973;28;20051;-79
2022/08/26 04:58:35;;;;;;;35.00;30.67;;;;;;;20.86;95.70;100712.50;4973462;28;20480;-79
2022/08/26 05:01:01;;;;;;;35.83;31.35;;;;;;;20.98;95.11;100715.25;4973796;28;20070;-77
2022/08/26 05:03:29;;;;;;;35.15;30.20;;;;;;;20.98;95.05;100712.56;4974586;28;20503;-77
2022/08/26 05:05:56;;;;;;;32.67;28.92;;;;;;;21.01;94.75;100714.78;4977620;28;20232;-80
2022/08/26 05:08:24;;;;;;;36.83;28.58;;;;;;;21.00;94.62;100716.63;4982298;28;20046;-80
2022/08/26 05:10:54;;;;;;;33.20;28.20;;;;;;;21.01;94.78;100720.94;4988805;28;20058;-80
2022/08/26 05:13:23;;;;;;;34.20;27.40;;;;;;;21.02;94.53;100721.75;4988245;28;20495;-80
2022/08/26 05:15:51;;;;;;;33.45;27.02;;;;;;;21.12;94.14;100716.72;4987533;28;20047;-80
2022/08/26 05:20:49;;;;;;;37.38;26.35;;;;;;;21.10;94.11;100729.44;4990745;28;20059;-82
2022/08/26 05:23:16;;;;;;;32.97;25.02;;;;;;;21.04;94.22;100725.81;5001195;28;20137;-82
2022/08/26 05:25:45;;;;;;;32.35;25.15;;;;;;;21.05;93.98;100722.13;5002834;28;20084;-82
2022/08/26 05:28:13;;;;;;;37.88;24.73;;;;;;;21.10;93.65;100729.44;5001985;28;20089;-81
2022/08/26 05:30:40;;;;;;;33.00;22.42;;;;;;;21.09;93.94;100723.28;5001492;28;20062;-80
2022/08/26 05:33:07;;;;;;;26.02;22.50;;;;;;;21.15;93.18;100721.59;5001609;28;20123;-82
2022/08/26 05:35:37;;;;;;;31.55;21.33;;;;;;;21.23;93.15;100729.31;5001485;28;20081;-81
2022/08/26 05:38:07;;;;;;;32.03;21.60;;;;;;;21.24;92.89;100725.63;5001582;28;20100;-82
2022/08/26 05:40:36;;;;;;;30.35;21.00;;;;;;;21.27;92.84;100733.13;4995182;28;20062;-82
2022/08/26 05:43:06;;;;;;;27.25;21.17;;;;;;;21.36;92.63;100733.63;4999949;28;20055;-81
2022/08/26 05:45:33;;;;;;;28.33;19.75;;;;;;;21.45;91.83;100737.63;4989260;28;20047;-80
2022/08/26 05:48:00;;;;;;;31.35;20.02;;;;;;;21.46;91.42;100736.56;5000925;28;20085;-82
2022/08/26 05:50:26;;;;;;;28.42;19.63;;;;;;;21.44;91.57;100742.13;4993434;28;20125;-81
2022/08/26 05:52:53;;;;;;;26.45;19.08;;;;;;;21.41;91.50;100731.13;5001207;28;20097;-81
2022/08/26 05:55:21;;;;;;;26.33;18.70;;;;;;;21.50;91.19;100746.56;5001312;28;20519;-82
2022/08/26 05:57:48;;;;;;;27.17;18.35;;;;;;;21.43;91.47;100729.84;4999424;28;20054;-82
2022/08/26 06:00:15;;;;;;;22.77;18.10;;;;;;;21.42;91.32;100732.75;4982379;28;20101;-81
2022/08/26 06:02:42;;;;;;;23.27;16.67;;;;;;;21.48;91.10;100737.16;4980984;28;20639;-81
2022/08/26 06:05:09;;;;;;;22.67;16.38;;;;;;;21.50;91.03;100743.91;4980424;28;20412;-81
2022/08/26 06:10:21;;;;;;;18.70;14.90;;;;;;;21.58;90.56;100732.13;4979499;28;20057;-81
2022/08/26 06:12:48;;;;;;;22.27;16.60;;;;;;;21.53;90.39;100740.78;4980551;28;20153;-81
2022/08/26 06:15:15;;;;;;;25.17;15.75;;;;;;;21.56;90.23;100741.38;4995713;28;20077;-81
2022/08/26 06:17:42;;;;;;;27.63;15.95;;;;;;;21.75;89.43;100748.25;4998708;28;20147;-81
2022/08/26 06:20:09;;;;;;;25.15;15.35;;;;;;;21.78;89.26;100745.94;4998300;28;20612;-81
2022/08/26 06:42:42;;;;;;;18.30;15.85;;;;;;;21.76;89.10;100755.22;5000181;28;20054;-85
2022/08/26 06:45:10;;;;;;;19.38;15.52;;;;;;;21.92;88.67;100753.75;4984268;28;20070;-86
2022/08/26 06:47:37;;;;;;;18.10;14.85;;;;;;;21.93;88.44;100739.41;5004250;28;20092;-82
2022/08/26 06:50:04;;;;;;;22.77;14.95;;;;;;;21.91;87.91;100730.81;5018970;23;20407;-82
2022/08/26 06:52:33;;;;;;;20.50;15.30;;;;;;;22.10;87.41;100754.53;4998345;28;20070;-83
2022/08/26 06:55:07;;;;;;;18.65;15.05;;;;;;;22.06;87.41;100756.03;5003248;28;20507;-81
2022/08/26 06:57:38;;;;;;;19.67;15.77;;;;;;;21.86;87.28;100736.84;4998803;28;20103;-81
2022/08/26 07:00:09;;;;;;;17.58;15.48;;;;;;;22.08;86.91;100764.63;5005766;28;20054;-80
2022/08/26 07:02:39;;;;;;;20.80;14.48;;;;;;;21.97;87.56;100768.03;5003817;28;20190;-79
2022/08/26 07:05:09;;;;;;;18.60;15.63;;;;;;;21.90;87.34;100755.84;4999304;28;20057;-79
2022/08/26 07:07:36;;;;;;;26.52;15.45;;;;;;;21.83;88.16;100761.25;4997362;28;20055;-79
2022/08/26 07:10:03;;;;;;;18.90;14.15;;;;;;;21.88;88.02;100748.06;4998468;28;20046;-79
2022/08/26 07:12:29;;;;;;;19.75;14.93;;;;;;;21.81;88.46;100769.47;4996926;28;20050;-78
2022/08/26 07:14:56;;;;;;;18.58;14.75;;;;;;;21.59;88.41;100751.56;5000311;28;20078;-79
2022/08/26 07:17:27;;;;;;;21.73;16.63;;;;;;;21.88;88.34;100774.72;4998526;28;20058;-80
2022/08/26 07:19:54;;;;;;;26.35;16.38;;;;;;;21.89;87.87;100771.00;4999633;28;20042;-80
2022/08/26 07:22:20;;;;;;;23.08;14.75;;;;;;;21.79;87.66;100757.41;4998468;28;20050;-78
2022/08/26 07:24:47;;;;;;;19.10;14.77;;;;;;;21.70;87.33;100756.94;4998976;28;20050;-81
2022/08/26 07:27:16;;;;;;;19.52;16.08;;;;;;;21.90;87.76;100771.81;4999399;28;20153;-79
2022/08/26 07:29:43;;;;;;;17.63;15.73;;;;;;;21.97;86.88;100773.34;5000223;28;20093;-80
2022/08/26 07:32:13;;;;;;;23.90;15.40;;;;;;;21.95;87.17;100780.75;5002481;28;20058;-79
2022/08/26 07:34:44;;;;;;;21.10;15.38;;;;;;;21.83;87.33;100782.56;5003845;28;20566;-80
2022/08/26 07:37:11;;;;;;;17.98;14.55;;;;;;;21.82;87.62;100779.09;5001827;28;20473;-80
2022/08/26 07:39:40;;;;;;;17.25;13.43;;;;;;;21.72;87.59;100765.53;5000578;28;20081;-79
2022/08/26 07:42:08;;;;;;;19.52;13.82;;;;;;;22.03;87.24;100785.81;5001536;28;20110;-80
2022/08/26 07:44:35;;;;;;;16.98;12.88;;;;;;;21.95;87.05;100791.41;5001151;28;20078;-81
2022/08/26 07:47:01;;;;;;;15.77;12.80;;;;;;;21.93;87.23;100800.69;5000727;28;20054;-81
2022/08/26 07:49:28;;;;;;;18.60;13.23;;;;;;;21.97;86.94;100796.53;5001713;28;20089;-80
2022/08/26 07:51:56;;;;;;;19.88;13.35;;;;;;;21.98;86.74;100798.97;5003027;28;20046;-80
2022/08/26 07:54:23;;;;;;;21.17;14.00;;;;;;;22.02;86.60;100797.50;5001003;28;20081;-79
2022/08/26 07:56:50;;;;;;;17.02;15.23;;;;;;;22.01;86.06;100806.53;5000547;28;20082;-79
2022/08/26 07:59:18;;;;;;;21.08;15.00;;;;;;;22.21;85.26;100800.09;5000177;28;20110;-82
2022/08/26 08:01:47;;;;;;;23.10;15.98;;;;;;;22.20;85.12;100798.50;5000801;28;20081;-81
2022/08/26 08:04:16;;;;;;;21.23;15.88;;;;;;;22.23;85.39;100792.66;5000447;28;20349;-80
2022/08/26 08:06:43;;;;;;;20.55;16.10;;;;;;;22.27;84.98;100796.50;4999382;28;20129;-81
2022/08/26 08:09:12;;;;;;;26.20;16.83;;;;;;;22.11;85.53;100790.00;4998019;28;20076;-82
2022/08/26 08:11:40;;;;;;;21.98;17.92;;;;;;;22.09;85.39;100797.41;4998651;28;20078;-80
2022/08/26 08:14:07;;;;;;;27.40;20.27;;;;;;;22.08;85.34;100801.94;4999076;28;20051;-80
2022/08/26 08:16:34;;;;;;;22.25;18.75;;;;;;;22.13;85.03;100799.41;4998582;28;20091;-81
2022/08/26 08:19:09;;;;;;;20.90;16.25;;;;;;;22.16;85.62;100801.59;4998835;28;20514;-81
2022/08/26 08:21:36;;;;;;;18.90;15.15;;;;;;;22.08;85.91;100801.94;4998332;28;20084;-81
2022/08/26 08:24:03;;;;;;;17.23;14.27;;;;;;;21.99;86.57;100800.59;4998808;28;20093;-80
2022/08/26 08:26:31;;;;;;;22.88;14.55;;;;;;;21.94;86.67;100808.44;4998749;28;20119;-79
2022/08/26 08:28:58;;;;;;;18.45;14.80;;;;;;;22.00;86.73;100793.41;5000616;28;20058;-80
2022/08/26 08:32:06;;;;;;;20.77;16.70;;;;;;;21.89;86.47;100794.16;5001168;28;20074;-80
2022/08/26 08:34:54;;;;;;;21.30;14.75;;;;;;;21.84;86.64;100789.53;4984776;28;20074;-80
2022/08/26 08:37:34;;;;;;;18.63;14.80;;;;;;;21.95;86.30;100817.25;4998918;28;20057;-79
2022/08/26 08:40:18;;;;;;;14.70;12.98;;;;;;;21.83;86.42;100793.22;5001571;28;20047;-80
2022/08/26 08:46:23;;;;;;;19.83;14.45;;;;;;;21.92;86.43;100796.38;5002144;28;20148;-78
2022/08/26 08:49:06;;;;;;;17.38;14.85;;;;;;;22.10;85.27;100794.53;5000700;28;20437;-79
2022/08/26 08:51:41;;;;;;;17.42;15.23;;;;;;;22.06;84.44;100798.69;5004862;28;20495;-84
2022/08/26 08:54:09;;;;;;;20.92;14.38;;;;;;;22.26;83.84;100802.88;5007497;28;20050;-79
2022/08/26 08:56:38;;;;;;;18.95;15.15;;;;;;;22.40;83.14;100810.44;5006236;28;20047;-78
2022/08/26 08:59:15;;;;;;;18.55;15.02;;;;;;;22.48;82.77;100809.31;5004425;28;20046;-79
2022/08/26 09:01:58;;;;;;;17.77;14.02;;;;;;;22.36;83.02;100809.28;5001785;28;20414;-78
2022/08/26 09:04:51;;;;;;;16.17;13.63;;;;;;;22.26;83.63;100816.19;4982333;28;20500;-78
2022/08/26 09:07:22;;;;;;;19.67;12.95;;;;;;;22.14;83.52;100811.69;4982355;28;20498;-80
2022/08/26 09:09:56;;;;;;;17.20;12.77;;;;;;;22.23;83.50;100814.81;4997638;28;20097;-81
2022/08/26 09:12:27;;;;;;;18.63;12.77;;;;;;;22.19;83.53;100803.00;5001274;28;20632;-78
2022/08/26 09:15:37;;;;;;;19.33;12.52;;;;;;;22.07;83.42;100800.31;5002876;28;20051;-80
2022/08/26 09:18:36;;;;;;;18.83;12.05;;;;;;;22.13;84.11;100811.91;4983605;28;20121;-81
2022/08/26 09:21:13;;;;;;;16.63;11.15;;;;;;;22.17;84.29;100805.91;4994602;28;20058;-82
2022/08/26 09:23:41;;;;;;;13.18;11.10;;;;;;;22.30;83.99;100807.53;5002231;28;20043;-83
2022/08/26 09:26:18;;;;;;;24.65;13.35;;;;;;;22.26;83.99;100810.88;5019914;28;20049;-83
2022/08/26 09:28:55;;;;;;;23.63;12.20;;;;;;;22.32;83.21;100813.44;5019648;28;20046;-83
2022/08/26 09:31:26;;;;;;;20.10;11.85;;;;;;;22.30;83.49;100817.38;5019185;28;20208;-81
2022/08/26 09:34:16;;;;;;;17.88;11.95;;;;;;;22.29;84.40;100824.56;4996069;28;20492;-82
2022/08/26 09:37:03;;;;;;;19.77;11.95;;;;;;;22.20;83.95;100811.81;4988208;28;20066;-81
2022/08/26 09:39:37;;;;;;;18.85;11.40;;;;;;;22.35;84.17;100823.66;4983478;28;20063;-82
2022/08/26 09:42:11;;;;;;;14.35;10.98;;;;;;;22.36;83.95;100808.47;4991938;28;20047;-80
2022/08/26 09:45:11;;;;;;;16.70;10.55;;;;;;;22.48;83.43;100819.97;5006502;28;20054;-82
2022/08/26 09:48:12;;;;;;;16.65;11.30;;;;;;;22.31;83.06;100811.00;5006796;28;20050;-82
2022/08/26 09:51:03;;;;;;;18.55;11.65;;;;;;;22.35;83.04;100817.50;5005736;28;20052;-81
2022/08/26 09:53:38;;;;;;;24.13;11.40;;;;;;;22.29;82.69;100808.56;5008490;28;20070;-83
2022/08/26 09:56:54;;;;;;;19.45;11.02;;;;;;;22.38;82.77;100807.19;5008240;28;20053;-81
2022/08/26 10:08:50;;;;;;;15.88;9.77;;;;;;;22.64;82.38;100831.81;4990040;28;20065;-82
2022/08/26 10:11:48;;;;;;;17.50;9.90;;;;;;;22.45;82.13;100804.44;4987597;28;20065;-81
2022/08/26 10:14:25;;;;;;;17.70;9.55;;;;;;;22.56;82.46;100808.16;4986617;28;20082;-81
2022/08/26 10:17:13;;;;;;;15.98;9.43;;;;;;;22.48;81.92;100812.78;4987921;28;20117;-82
2022/08/26 10:20:10;;;;;;;12.07;9.73;;;;;;;22.32;81.70;100812.63;4988197;28;20062;-85
2022/08/26 10:23:00;;;;;;;11.85;9.07;;;;;;;22.46;81.63;100816.72;4993659;28;20074;-80
2022/08/26 10:25:44;;;;;;;14.35;9.30;;;;;;;22.59;80.37;100811.19;4984740;28;20050;-81
2022/08/26 10:28:39;;;;;;;11.85;8.90;;;;;;;22.62;80.56;100818.72;4987182;28;20061;-81
2022/08/26 10:31:32;;;;;;;11.85;7.90;;;;;;;22.74;80.30;100814.19;4985460;28;20115;-80
2022/08/26 10:34:09;;;;;;;15.40;8.27;;;;;;;22.90;78.97;100826.06;4984967;28;20058;-82
2022/08/26 10:39:52;;;;;;;10.18;7.88;;;;;;;23.38;77.24;100841.78;4985420;28;20078;-79
2022/08/26 10:42:34;;;;;;;14.18;7.43;;;;;;;23.35;76.90;100820.09;4969069;28;20061;-79
2022/08/26 10:45:36;;;;;;;12.90;7.03;;;;;;;23.47;75.95;100832.38;4985930;28;20047;-80
2022/08/26 10:48:12;;;;;;;18.27;7.18;;;;;;;23.40;76.10;100833.53;4985666;28;20065;-81
2022/08/26 10:50:52;;;;;;;14.23;6.80;;;;;;;23.41;75.54;100817.28;4984646;28;20059;-80
2022/08/26 10:53:55;;;;;;;14.27;6.68;;;;;;;23.48;75.96;100825.97;4986607;28;20549;-81
2022/08/26 10:57:14;;;;;;;10.20;6.38;;;;;;;23.40;76.21;100814.84;4969115;28;20488;-78
2022/08/26 11:06:51;;;;;;;12.13;6.32;;;;;;;23.74;74.27;100799.78;4984962;28;20058;-81
2022/08/26 11:13:10;;;;;;;14.52;6.30;;;;;;;23.89;73.83;100796.59;4986029;28;20050;-81
2022/08/26 11:16:00;;;;;;;13.25;6.72;;;;;;;24.25;73.31;100812.22;4985995;28;20554;-79
2022/08/26 11:18:45;;;;;;;12.77;6.38;;;;;;;23.97;73.42;100794.34;4982658;28;20054;-80
2022/08/26 11:21:47;;;;;;;11.80;6.55;;;;;;;23.92;73.45;100793.44;4981792;28;20059;-78
2022/08/26 11:24:39;;;;;;;10.18;6.22;;;;;;;24.10;73.02;100811.94;4950331;28;20054;-79
2022/08/26 11:27:12;;;;;;;9.40;5.90;;;;;;;24.17;73.27;100808.03;4981621;28;20055;-81
2022/08/26 11:30:05;;;;;;;15.32;6.72;;;;;;;24.35;72.94;100814.25;4981021;28;20532;-82
2022/08/26 11:43:54;;;;;;;12.80;5.57;;;;;;;24.21;74.29;100807.56;4923894;29;20103;-84
2022/08/26 11:46:48;;;;;;;11.60;6.18;;;;;;;23.86;75.83;100811.25;4916366;29;20752;-83
2022/08/26 11:49:30;;;;;;;11.30;5.53;;;;;;;23.80;76.28;100798.81;4949677;28;20393;-81
2022/08/26 11:52:32;;;;;;;11.25;5.30;;;;;;;23.99;76.01;100791.44;4982391;28;20050;-81
2022/08/26 11:55:05;;;;;;;11.68;6.32;;;;;;;23.92;75.51;100788.91;4983953;28;20054;-80
2022/08/26 11:57:45;;;;;;;10.70;5.43;;;;;;;24.11;75.77;100802.84;4982767;28;20057;-81
2022/08/26 12:00:34;;;;;;;12.13;5.35;;;;;;;24.01;75.92;100798.16;4983013;28;20082;-80
2022/08/26 12:03:08;;;;;;;12.50;6.13;;;;;;;24.02;75.73;100790.94;4983919;28;20050;-80
2022/08/26 12:05:48;;;;;;;10.90;5.40;;;;;;;24.21;75.33;100810.25;4983129;28;20051;-81
2022/08/26 12:08:25;;;;;;;14.05;5.13;;;;;;;24.29;75.26;100817.91;4982306;28;20058;-82
2022/08/26 12:11:08;;;;;;;10.32;5.85;;;;;;;24.05;75.06;100807.31;4981804;28;20050;-78
2022/08/26 12:13:39;;;;;;;7.90;4.82;;;;;;;24.02;75.65;100804.31;4982306;28;20047;-82
2022/08/26 12:16:20;;;;;;;9.13;5.10;;;;;;;24.17;75.09;100810.72;4982543;28;20062;-79
2022/08/26 12:18:57;;;;;;;11.98;5.40;;;;;;;24.07;74.97;100797.19;4983653;28;20047;-83
2022/08/26 12:21:29;;;;;;;11.07;5.00;;;;;;;23.96;75.11;100792.72;4983871;28;20483;-80
2022/08/26 12:24:00;;;;;;;12.88;5.15;;;;;;;24.09;75.08;100808.47;4983761;28;20051;-80
2022/08/26 12:26:38;;;;;;;12.90;5.43;;;;;;;24.17;75.46;100817.94;4982106;28;20550;-82
2022/08/26 12:29:31;;;;;;;17.05;5.53;;;;;;;23.93;75.70;100806.56;4984179;28;20129;-81
2022/08/26 12:32:12;;;;;;;10.85;5.40;;;;;;;23.65;77.06;100820.72;4982807;28;20127;-80
2022/08/26 12:38:05;;;;;;;;;;;;;;;;;;;;;
2022/08/26 12:40:53;;;;;;;16.05;6.03;;;;;;;23.38;78.05;100827.63;4983919;28;20051;-81
2022/08/26 12:43:45;;;;;;;12.15;6.03;;;;;;;23.25;78.20;100812.66;4983923;28;20051;-81
2022/08/26 12:46:18;;;;;;;13.15;6.63;;;;;;;23.55;77.82;100831.22;4982652;28;20057;-81